Time;durP1;ratioP1;P1;durP2;ratioP2;P2;SDS_P1;SDS_P2;PMS_P1;PMS_P2;Temp;Humidity;BMP_temperature;BMP_pressure;BME280_temperature;BME280_humidity;BME280_pressure;Samples;Min_cycle;Max_cycle;Signal;HPM_P1;HPM_P2
2022/06/02 00:00:08;;;;;;;;;3.50;1.50;;;;;18.99;47.44;101491.34;5060573;28;45347;-90
2022/06/02 00:02:58;;;;;;;;;1.75;1.75;;;;;19.00;47.24;101488.75;5060457;28;45398;-91
2022/06/02 00:05:50;;;;;;;;;2.00;2.00;;;;;19.01;47.32;101500.13;5078640;28;45323;-90
2022/06/02 00:08:46;;;;;;;;;1.00;1.00;;;;;18.98;47.23;101494.81;5077430;28;45484;-90
2022/06/02 00:11:33;;;;;;;;;2.00;2.00;;;;;18.96;47.45;101497.41;5077618;28;45280;-91
2022/06/02 00:14:10;;;;;;;;;3.00;2.00;;;;;18.96;47.29;101493.88;5079430;28;45679;-89
2022/06/02 00:16:50;;;;;;;;;2.25;2.25;;;;;18.96;47.97;101499.13;5083664;27;45386;-89
2022/06/02 00:19:41;;;;;;;;;2.00;2.00;;;;;18.93;47.68;101496.44;5086591;28;46012;-75
2022/06/02 00:22:21;;;;;;;;;2.00;2.00;;;;;18.92;48.01;101507.78;5081701;28;45066;-82
2022/06/02 00:25:02;;;;;;;;;2.00;2.00;;;;;18.91;48.04;101506.00;5089987;28;45396;-90
2022/06/02 00:27:39;;;;;;;;;2.50;2.50;;;;;18.92;48.39;101510.41;5077946;28;45344;-90
2022/06/02 00:30:19;;;;;;;;;3.50;3.50;;;;;18.91;48.60;101513.88;5077455;28;46046;-91
2022/06/02 00:33:12;;;;;;;;;2.50;2.25;;;;;18.88;48.18;101518.19;5077261;28;45315;-90
2022/06/02 00:35:50;;;;;;;;;3.50;2.00;;;;;18.84;48.58;101520.72;5076687;27;45244;-89
2022/06/02 00:38:18;;;;;;;;;4.00;2.25;;;;;18.81;48.62;101516.31;5081143;27;45354;-84
2022/06/02 00:40:45;;;;;;;;;2.50;2.00;;;;;18.80;48.76;101511.91;5081234;28;45359;-87
2022/06/02 00:43:29;;;;;;;;;3.00;3.00;;;;;18.80;49.14;101514.53;5080503;27;45298;-89
2022/06/02 00:46:24;;;;;;;;;3.50;3.50;;;;;18.77;49.08;101517.06;5079997;28;45340;-84
2022/06/02 00:49:08;;;;;;;;;2.50;2.50;;;;;18.68;49.64;101523.00;5080679;28;45336;-87
2022/06/02 00:51:40;;;;;;;;;2.00;2.00;;;;;18.64;50.06;101520.25;5080787;28;45311;-88
2022/06/02 00:57:32;;;;;;;;;4.50;3.00;;;;;18.51;49.85;101509.53;5090702;28;45437;-90
2022/06/02 01:00:19;;;;;;;;;2.75;2.00;;;;;18.45;50.81;101500.63;5088482;27;45396;-91
2022/06/02 01:02:52;;;;;;;;;4.00;3.00;;;;;18.43;50.47;101511.06;5087677;28;46267;-89
2022/06/02 01:05:50;;;;;;;;;3.50;3.50;;;;;18.43;50.99;101518.03;5086633;28;45276;-90
2022/06/02 01:08:28;;;;;;;;;2.50;2.50;;;;;18.40;51.50;101517.13;5081592;27;45365;-85
2022/06/02 01:11:16;;;;;;;;;5.00;3.00;;;;;18.38;51.55;101513.56;5080924;27;45886;-87
2022/06/02 01:14:24;;;;;;;;;3.00;3.00;;;;;18.34;51.57;101509.13;5078177;28;45253;-87
2022/06/02 01:17:10;;;;;;;;;4.50;3.00;;;;;18.30;51.96;101511.63;4982824;28;45585;-91
2022/06/02 01:19:47;;;;;;;;;3.75;3.00;;;;;18.28;51.88;101514.19;5073594;28;45583;-91
2022/06/02 01:22:44;;;;;;;;;3.00;3.00;;;;;18.23;51.62;101506.22;5080061;28;45414;-91
2022/06/02 01:25:21;;;;;;;;;3.75;3.75;;;;;18.19;52.23;101507.00;5079391;27;45394;-88
2022/06/02 01:28:08;;;;;;;;;4.00;4.00;;;;;18.17;52.44;101507.81;5079361;27;45261;-76
2022/06/02 01:31:17;;;;;;;;;6.75;4.00;;;;;18.14;52.96;101508.63;5078584;27;45231;-80
2022/06/02 01:33:57;;;;;;;;;4.50;3.00;;;;;18.15;52.82;101515.63;4989268;28;45362;-79
2022/06/02 01:36:39;;;;;;;;;4.00;2.00;;;;;18.07;53.44;101504.09;5078705;28;45628;-78
2022/06/02 01:39:33;;;;;;;;;3.25;3.25;;;;;18.10;53.52;101512.91;5078203;27;45820;-76
2022/06/02 01:42:17;;;;;;;;;4.25;4.00;;;;;18.05;53.56;101500.53;5083213;28;45388;-90
2022/06/02 01:45:01;;;;;;;;;4.50;3.00;;;;;17.98;53.78;101502.13;5069635;28;45350;-90
2022/06/02 01:47:40;;;;;;;;;4.00;3.00;;;;;17.91;53.42;101500.16;5085929;28;46193;-89
2022/06/02 01:50:25;;;;;;;;;3.50;3.25;;;;;17.91;54.26;101524.59;5081829;28;45273;-90
2022/06/02 01:52:54;;;;;;;;;3.00;3.00;;;;;17.87;54.48;101529.72;5064382;28;45320;-90
2022/06/02 01:55:54;;;;;;;;;3.75;3.75;;;;;17.83;54.17;101534.00;5079498;28;45275;-89
2022/06/02 01:58:45;;;;;;;;;3.50;3.50;;;;;17.72;54.31;101514.50;5077164;27;46202;-89
2022/06/02 02:01:16;;;;;;;;;3.50;3.50;;;;;17.77;54.89;101523.34;5079067;27;45758;-90
2022/06/02 02:04:19;;;;;;;;;3.00;3.00;;;;;17.71;55.17;101525.81;5061283;28;45258;-90
2022/06/02 02:07:04;;;;;;;;;3.75;3.25;;;;;17.63;55.21;101518.66;5070074;27;45377;-90
2022/06/02 02:09:54;;;;;;;;;4.00;3.00;;;;;17.66;55.05;101527.41;5060649;28;45303;-89
2022/06/02 02:12:46;;;;;;;;;5.00;3.50;;;;;17.58;55.30;101525.47;5078781;28;45352;-88
2022/06/02 02:15:57;;;;;;;;;3.00;3.00;;;;;17.54;56.04;101509.66;5079007;28;45458;-89
2022/06/02 02:18:36;;;;;;;;;4.00;4.00;;;;;17.53;56.55;101520.97;5073075;28;45442;-90
2022/06/02 02:21:32;;;;;;;;;7.00;4.00;;;;;17.47;56.24;101524.28;5079356;27;45577;-90
2022/06/02 02:24:19;;;;;;;;;4.75;4.00;;;;;17.47;56.33;101521.69;5086001;28;45703;-84
2022/06/02 02:27:00;;;;;;;;;3.50;3.50;;;;;17.47;56.68;101517.34;5076431;28;45555;-75
2022/06/02 02:30:00;;;;;;;;;7.50;4.00;;;;;17.46;56.56;101522.53;5080241;28;45358;-87
2022/06/02 02:32:53;;;;;;;;;3.50;3.50;;;;;17.46;56.53;101517.28;5085192;28;45382;-89
2022/06/02 02:35:38;;;;;;;;;5.00;3.75;;;;;17.45;56.23;101521.66;5078451;27;45256;-88
2022/06/02 02:38:29;;;;;;;;;4.00;4.00;;;;;17.44;56.80;101519.88;5078567;28;45515;-87
2022/06/02 02:41:01;;;;;;;;;4.25;4.25;;;;;17.38;57.04;101505.72;5082463;28;45381;-86
2022/06/02 02:43:52;;;;;;;;;6.00;5.00;;;;;17.37;57.03;101514.41;5078356;28;46302;-88
2022/06/02 02:46:33;;;;;;;;;6.50;4.50;;;;;17.33;57.07;101518.69;5077683;27;45612;-89
2022/06/02 02:49:17;;;;;;;;;4.50;4.00;;;;;17.26;57.09;101515.00;5078192;28;45572;-89
2022/06/02 02:51:58;;;;;;;;;5.00;5.00;;;;;17.28;57.13;101520.25;5079491;28;45421;-85
2022/06/02 02:54:57;;;;;;;;;1.00;1.00;;;;;17.29;57.87;101519.44;5078420;27;45403;-88
2022/06/02 02:58:05;;;;;;;;;5.50;4.00;;;;;17.27;57.42;101524.63;5059550;28;46416;-90
2022/06/02 03:01:00;;;;;;;;;5.25;5.00;;;;;17.22;57.39;101527.94;5078032;28;45386;-89
2022/06/02 03:03:34;;;;;;;;;5.00;5.00;;;;;17.20;57.97;101527.91;5080557;28;45355;-89
2022/06/02 03:06:18;;;;;;;;;5.75;5.50;;;;;17.16;57.58;101518.19;5082017;28;45423;-89
2022/06/02 03:09:13;;;;;;;;;4.50;4.50;;;;;17.15;57.97;101517.31;5065858;28;45278;-77
2022/06/02 03:11:54;;;;;;;;;3.00;3.00;;;;;17.14;57.79;101514.63;5085427;28;45420;-87
2022/06/02 03:14:41;;;;;;;;;4.00;4.00;;;;;17.11;58.17;101518.06;5078455;27;45366;-88
2022/06/02 03:17:37;;;;;;;;;5.00;5.00;;;;;17.05;58.58;101507.44;5078641;27;45369;-89
2022/06/02 03:20:12;;;;;;;;;6.75;5.50;;;;;16.99;58.29;101508.13;5077674;28;45753;-87
2022/06/02 03:22:37;;;;;;;;;4.00;4.00;;;;;16.99;58.41;101502.00;5059554;28;45536;-85
2022/06/02 03:25:34;;;;;;;;;5.00;5.00;;;;;16.90;58.42;101492.09;5095406;28;45316;-80
2022/06/02 03:28:43;;;;;;;;;6.50;6.00;;;;;16.89;58.72;101513.00;5089283;28;46114;-85
2022/06/02 03:31:30;;;;;;;;;4.00;4.00;;;;;16.87;58.94;101524.31;5056370;28;45293;-88
2022/06/02 03:34:01;;;;;;;;;7.50;4.50;;;;;16.88;59.17;101525.22;5055374;28;45423;-88
2022/06/02 03:36:43;;;;;;;;;5.50;5.25;;;;;16.89;58.93;101523.47;5069591;27;45308;-84
2022/06/02 03:39:31;;;;;;;;;5.75;5.50;;;;;16.83;59.12;101519.84;5077227;28;46448;-86
2022/06/02 03:41:57;;;;;;;;;5.00;5.00;;;;;16.84;59.16;101529.47;5078848;28;45178;-88
2022/06/02 03:44:41;;;;;;;;;4.50;4.25;;;;;16.87;59.51;101533.88;5077913;28;45366;-88
2022/06/02 03:47:36;;;;;;;;;6.25;6.00;;;;;16.89;58.84;101545.28;5081708;27;45389;-85
2022/06/02 03:50:26;;;;;;;;;3.75;3.50;;;;;16.86;58.79;101546.06;5072067;28;45513;-79
2022/06/02 03:53:18;;;;;;;;;6.00;4.00;;;;;16.85;59.86;101539.06;5084859;27;45704;-88
2022/06/02 03:55:54;;;;;;;;;5.00;5.00;;;;;16.84;59.13;101536.41;5083591;28;45332;-75
2022/06/02 03:58:43;;;;;;;;;5.50;5.50;;;;;16.83;59.56;101537.25;5076787;28;45401;-81
2022/06/02 04:01:12;;;;;;;;;5.75;5.75;;;;;16.84;59.14;101533.78;5078160;27;45404;-80
2022/06/02 04:04:12;;;;;;;;;6.00;5.00;;;;;16.87;59.21;101523.44;5077485;28;45193;-78
2022/06/02 04:06:41;;;;;;;;;5.00;5.00;;;;;16.89;59.35;101513.00;5076519;28;45319;-88
2022/06/02 04:09:07;;;;;;;;;5.00;4.50;;;;;16.90;59.22;101523.50;5076513;28;45347;-89
2022/06/02 04:13:37;;;;;;;;;8.25;6.25;;;;;16.90;59.04;101525.25;5059381;28;45600;-90
2022/06/02 04:14:54;;;;;;;;;11.75;11.75;;;;;16.86;58.93;101539.97;5080906;28;45413;-87
2022/06/02 04:17:35;;;;;;;;;7.00;7.00;;;;;16.83;59.18;101535.53;5065826;28;45252;-78
2022/06/02 04:20:36;;;;;;;;;7.00;7.00;;;;;16.80;59.37;101540.66;5094671;28;44676;-87
2022/06/02 04:23:20;;;;;;;;;5.75;5.75;;;;;16.80;59.49;101538.03;5093813;28;45241;-76
2022/06/02 04:26:19;;;;;;;;;7.50;5.00;;;;;16.81;59.15;101533.69;5097085;27;44945;-79
2022/06/02 04:28:54;;;;;;;;;7.00;7.00;;;;;16.90;58.67;101536.56;5087428;28;45225;-81
2022/06/02 04:31:31;;;;;;;;;9.00;8.00;;;;;16.92;58.97;101547.09;5087326;28;45290;-82
2022/06/02 04:34:23;;;;;;;;;9.25;8.50;;;;;16.93;59.21;101555.00;5092161;28;45898;-76
2022/06/02 04:37:27;;;;;;;;;15.75;13.25;;;;;16.91;59.43;101547.94;5096545;27;45790;-84
2022/06/02 04:40:25;;;;;;;;;10.75;10.75;;;;;16.92;59.15;101555.81;5082298;27;45389;-85
2022/06/02 04:43:09;;;;;;;;;11.75;10.75;;;;;16.89;59.56;101553.13;5080684;27;45465;-84
2022/06/02 04:45:57;;;;;;;;;11.25;10.25;;;;;16.87;59.18;101558.31;5081653;27;45284;-90
2022/06/02 04:48:50;;;;;;;;;5.50;5.00;;;;;16.87;59.61;101554.81;5075972;27;45274;-88
2022/06/02 04:51:47;;;;;;;;;7.00;7.00;;;;;16.85;59.23;101546.91;5079402;27;45314;-83
2022/06/02 04:54:36;;;;;;;;;8.25;8.25;;;;;16.88;58.88;101564.44;5081397;28;45471;-79
2022/06/02 04:57:25;;;;;;;;;8.75;8.75;;;;;16.91;59.62;101554.03;5061482;28;46989;-84
2022/06/02 05:00:19;;;;;;;;;10.25;10.25;;;;;16.94;59.28;101550.69;5075223;28;45782;-75
2022/06/02 05:03:08;;;;;;;;;8.75;6.75;;;;;16.97;59.45;101556.91;5078609;28;45224;-82
2022/06/02 05:06:06;;;;;;;;;7.00;7.00;;;;;17.03;59.47;101556.19;5079038;28;45391;-78
2022/06/02 05:08:55;;;;;;;;;6.00;5.75;;;;;17.05;59.53;101540.53;5079660;28;46492;-84
2022/06/02 05:11:31;;;;;;;;;7.50;6.50;;;;;17.11;58.51;101540.75;5081294;27;45280;-78
2022/06/02 05:14:21;;;;;;;;;7.00;7.00;;;;;17.03;59.19;101553.59;5078989;27;45535;-81
2022/06/02 05:16:56;;;;;;;;;8.00;8.00;;;;;17.05;59.38;101545.78;5078154;28;45274;-76
2022/06/02 05:19:30;;;;;;;;;8.00;7.25;;;;;17.05;59.29;101551.00;5077242;27;46023;-82
2022/06/02 05:22:31;;;;;;;;;5.50;5.50;;;;;17.04;58.87;101549.22;5076115;28;45493;-82
2022/06/02 05:25:17;;;;;;;;;7.75;7.50;;;;;17.06;59.20;101561.50;5071789;27;45591;-76
2022/06/02 05:27:49;;;;;;;;;6.75;6.75;;;;;17.07;59.12;101558.03;5078005;28;45565;-86
2022/06/02 05:30:34;;;;;;;;;9.50;9.50;;;;;17.07;59.34;101550.19;5079241;27;46060;-84
2022/06/02 05:33:30;;;;;;;;;9.00;9.00;;;;;17.12;59.00;101546.00;5078382;28;45260;-85
2022/06/02 05:35:56;;;;;;;;;7.00;7.00;;;;;17.15;59.17;101546.09;5077092;28;45355;-75
2022/06/02 05:38:40;;;;;;;;;8.25;8.25;;;;;17.17;59.02;101551.38;5077628;28;45660;-89
2022/06/02 05:41:05;;;;;;;;;10.50;7.75;;;;;17.20;58.95;101559.31;5078518;28;45452;-87
2022/06/02 05:43:55;;;;;;;;;10.25;7.00;;;;;17.21;59.14;101561.09;5078126;27;45273;-87
2022/06/02 05:47:00;;;;;;;;;9.00;9.00;;;;;17.22;58.87;101559.34;5078611;28;45348;-85
2022/06/02 05:49:53;;;;;;;;;10.25;8.25;;;;;17.25;59.42;101552.47;5082058;28;45482;-87
2022/06/02 05:52:35;;;;;;;;;8.25;8.25;;;;;17.27;58.94;101548.19;5064773;28;45891;-87
2022/06/02 05:55:10;;;;;;;;;10.25;8.25;;;;;17.28;59.27;101565.66;5063229;28;45370;-86
2022/06/02 05:58:00;;;;;;;;;7.75;7.75;;;;;17.32;59.11;101553.56;5074756;28;45393;-83
2022/06/02 06:01:12;;;;;;;;;9.25;8.50;;;;;17.33;59.23;101550.09;5082267;28;45174;-89
2022/06/02 06:04:00;;;;;;;;;9.50;8.75;;;;;17.29;59.51;101553.44;5059158;28;46302;-78
2022/06/02 06:06:43;;;;;;;;;3.50;3.50;;;;;17.29;59.04;101548.22;5077884;28;45880;-83
2022/06/02 06:09:12;;;;;;;;;14.00;12.00;;;;;17.28;59.36;101564.75;5080402;27;45268;-79
2022/06/02 06:11:56;;;;;;;;;13.00;11.00;;;;;17.27;59.14;101556.03;5077261;28;45239;-80
2022/06/02 06:14:54;;;;;;;;;10.00;7.25;;;;;17.25;59.41;101559.47;5075807;28;46366;-80
2022/06/02 06:17:51;;;;;;;;;9.50;8.50;;;;;17.23;59.68;101574.22;5057891;28;45658;-81
2022/06/02 06:20:35;;;;;;;;;10.00;7.00;;;;;17.23;60.08;101568.97;5058686;28;45427;-81
2022/06/02 06:23:22;;;;;;;;;9.75;7.75;;;;;17.24;59.96;101561.16;5077381;28;45578;-81
2022/06/02 06:26:20;;;;;;;;;10.75;10.00;;;;;17.27;59.57;101557.78;5076589;27;45395;-77
2022/06/02 06:29:11;;;;;;;;;10.00;10.00;;;;;17.24;59.87;101565.53;5063903;28;45422;-75
2022/06/02 06:31:52;;;;;;;;;10.50;10.50;;;;;17.24;60.02;101555.06;5077270;28;45462;-76
2022/06/02 06:34:49;;;;;;;;;8.75;8.75;;;;;17.23;60.22;101551.53;5060334;28;45180;-77
2022/06/02 06:37:49;;;;;;;;;10.25;8.25;;;;;17.31;60.45;101551.78;5074051;28;46098;-78
2022/06/02 06:40:27;;;;;;;;;10.50;9.75;;;;;17.36;60.39;101551.91;5076418;28;45332;-77
2022/06/02 06:42:59;;;;;;;;;11.00;10.00;;;;;17.38;60.24;101551.13;5084611;27;45251;-79
2022/06/02 06:45:40;;;;;;;;;8.00;8.00;;;;;17.36;60.29;101537.09;5090323;28;45347;-82
2022/06/02 06:48:14;;;;;;;;;12.00;10.00;;;;;17.49;60.58;101554.03;5078490;28;45406;-79
2022/06/02 06:50:51;;;;;;;;;11.75;11.75;;;;;17.49;60.13;101544.44;5077732;27;45889;-86
2022/06/02 06:53:17;;;;;;;;;11.50;11.50;;;;;17.57;60.21;101551.63;5077474;28;45388;-87
2022/06/02 06:55:50;;;;;;;;;12.75;11.00;;;;;17.59;60.24;101544.72;5059610;28;45357;-87
2022/06/02 06:58:43;;;;;;;;;15.00;14.25;;;;;17.64;60.05;101550.94;5076248;28;45632;-82
2022/06/02 07:01:33;;;;;;;;;11.00;10.50;;;;;17.67;59.81;101544.91;5076810;28;45236;-85
2022/06/02 07:04:30;;;;;;;;;15.25;13.25;;;;;17.73;59.93;101559.06;5076389;28;45439;-82
2022/06/02 07:07:20;;;;;;;;;13.50;12.00;;;;;17.77;59.87;101567.88;5075122;28;45324;-83
2022/06/02 07:10:10;;;;;;;;;13.25;11.25;;;;;17.78;59.77;101562.69;5079169;27;46038;-86
2022/06/02 07:12:50;;;;;;;;;14.50;12.25;;;;;17.80;59.84;101560.13;5082003;28;45987;-86
2022/06/02 07:15:33;;;;;;;;;14.00;11.50;;;;;17.87;59.68;101556.81;5083729;28;45306;-88
2022/06/02 07:18:29;;;;;;;;;13.25;11.25;;;;;17.94;59.61;101566.63;5083022;28;45352;-85
2022/06/02 07:21:34;;;;;;;;;9.25;9.25;;;;;17.96;60.06;101569.28;5081140;28;45554;-86
2022/06/02 07:24:25;;;;;;;;;12.00;11.25;;;;;18.00;59.88;101572.88;5078668;28;45207;-85
2022/06/02 07:27:15;;;;;;;;;14.00;12.75;;;;;18.04;59.60;101561.66;5077652;28;45189;-85
2022/06/02 07:30:20;;;;;;;;;10.50;10.00;;;;;18.09;59.65;101562.63;5059451;28;45505;-85
2022/06/02 07:33:02;;;;;;;;;11.75;11.00;;;;;18.13;59.58;101569.75;5076163;27;46129;-85
2022/06/02 07:35:30;;;;;;;;;9.50;7.25;;;;;18.18;59.34;101568.16;5076045;27;45343;-86
2022/06/02 07:38:15;;;;;;;;;9.75;8.50;;;;;18.22;59.10;101566.47;5076175;28;45360;-85
2022/06/02 07:41:15;;;;;;;;;11.00;9.00;;;;;18.28;59.38;101566.63;5077985;27;45379;-88
2022/06/02 07:44:02;;;;;;;;;12.00;9.50;;;;;18.32;58.51;101558.00;5076637;27;45648;-84
2022/06/02 07:47:02;;;;;;;;;12.25;9.50;;;;;18.36;58.72;101558.97;5076920;27;45336;-85
2022/06/02 07:49:52;;;;;;;;;10.25;9.00;;;;;18.36;58.63;101553.72;5061185;28;45371;-86
2022/06/02 07:52:27;;;;;;;;;8.50;8.50;;;;;18.47;58.60;101565.34;5081086;27;45407;-86
2022/06/02 07:55:11;;;;;;;;;12.75;9.00;;;;;18.45;57.85;101561.81;5086155;27;46090;-85
2022/06/02 07:57:50;;;;;;;;;10.25;9.00;;;;;18.54;57.22;101564.63;5068896;28;45660;-83
2022/06/02 08:00:22;;;;;;;;;10.25;8.00;;;;;18.56;57.00;101557.69;5086081;28;45866;-86
2022/06/02 08:03:05;;;;;;;;;8.50;8.00;;;;;18.61;57.25;101555.19;5082871;28;45296;-87
2022/06/02 08:05:39;;;;;;;;;7.50;7.50;;;;;18.66;56.98;101556.19;5080008;28;46170;-85
2022/06/02 08:08:16;;;;;;;;;11.00;8.50;;;;;18.72;56.55;101544.97;5079691;28;45999;-87
2022/06/02 08:11:07;;;;;;;;;10.50;8.50;;;;;18.86;56.08;101538.25;5079872;28;45297;-86
2022/06/02 08:13:45;;;;;;;;;8.25;8.25;;;;;19.08;55.75;101537.91;5079828;27;45834;-88
2022/06/02 08:16:15;;;;;;;;;8.25;8.25;;;;;19.35;54.85;101537.59;5061941;28;45351;-86
2022/06/02 08:18:55;;;;;;;;;9.00;6.25;;;;;19.61;54.02;101542.44;5080264;28;45308;-84
2022/06/02 08:21:48;;;;;;;;;8.50;7.00;;;;;19.86;53.71;101525.44;5079888;27;45299;-85
2022/06/02 08:24:23;;;;;;;;;5.00;5.00;;;;;20.08;52.55;101521.44;5078913;27;45482;-85
2022/06/02 08:27:02;;;;;;;;;6.00;5.50;;;;;20.23;51.58;101517.31;5083554;28;45453;-87
2022/06/02 08:29:38;;;;;;;;;7.00;6.00;;;;;20.42;49.76;101521.09;5088071;28;45346;-86
2022/06/02 08:32:30;;;;;;;;;9.25;6.00;;;;;20.56;49.30;101519.56;5085516;27;45260;-86
2022/06/02 08:35:17;;;;;;;;;5.25;5.25;;;;;20.70;47.52;101517.13;5052894;27;45348;-88
2022/06/02 08:38:27;;;;;;;;;7.25;6.00;;;;;20.80;47.82;101515.53;5087129;28;46271;-85
2022/06/02 08:40:56;;;;;;;;;6.00;5.50;;;;;20.91;47.60;101512.16;5073934;27;45724;-84
2022/06/02 08:43:51;;;;;;;;;8.00;5.75;;;;;20.98;46.96;101504.38;5089079;28;45326;-85
2022/06/02 08:46:35;;;;;;;;;3.75;3.25;;;;;21.00;46.04;101509.66;5083760;27;45468;-86
2022/06/02 08:49:22;;;;;;;;;7.00;7.00;;;;;21.00;46.31;101520.19;5088860;27;45410;-88
2022/06/02 08:52:09;;;;;;;;;5.50;5.50;;;;;20.97;45.58;101505.25;5098151;27;45275;-85
2022/06/02 08:55:00;;;;;;;;;8.00;6.75;;;;;20.94;46.29;101499.06;5081472;28;45246;-85
2022/06/02 08:57:42;;;;;;;;;6.75;5.50;;;;;20.91;45.98;101501.66;5061617;28;45386;-87
2022/06/02 09:00:11;;;;;;;;;6.00;5.75;;;;;20.87;46.57;101500.72;5078834;28;45432;-85
2022/06/02 09:03:05;;;;;;;;;7.50;6.50;;;;;20.84;46.10;101498.03;5060529;28;45749;-83
2022/06/02 09:06:01;;;;;;;;;5.75;5.00;;;;;20.88;45.97;101507.75;5078436;27;45339;-86
2022/06/02 09:08:33;;;;;;;;;6.25;6.25;;;;;20.90;45.79;101513.91;5079555;27;45349;-84
2022/06/02 09:11:24;;;;;;;;;7.00;6.00;;;;;20.83;46.61;101504.16;5061860;28;45864;-87
2022/06/02 09:13:59;;;;;;;;;6.00;6.00;;;;;20.82;46.58;101508.56;5060685;27;45403;-86
2022/06/02 09:17:01;;;;;;;;;5.00;5.00;;;;;20.80;46.59;101499.75;5078916;28;45416;-85
2022/06/02 09:20:06;;;;;;;;;4.25;4.25;;;;;20.80;46.63;101491.88;5080536;28;45282;-85
2022/06/02 09:22:49;;;;;;;;;4.75;4.75;;;;;20.82;45.30;101495.41;5085190;28;45398;-85
2022/06/02 09:25:40;;;;;;;;;4.50;4.50;;;;;20.91;45.94;101489.34;5085588;28;45324;-89
2022/06/02 09:28:43;;;;;;;;;3.75;3.75;;;;;21.03;45.49;101486.88;5085768;27;45272;-85
2022/06/02 09:31:36;;;;;;;;;4.25;4.25;;;;;21.18;44.22;101499.34;5079638;28;45327;-83
2022/06/02 09:34:01;;;;;;;;;5.00;5.00;;;;;21.32;44.13;101489.00;5078615;28;45440;-86
2022/06/02 09:37:17;;;;;;;;;3.00;3.00;;;;;21.49;44.04;101496.19;5059709;28;45387;-84
2022/06/02 09:39:45;;;;;;;;;4.00;4.00;;;;;21.64;42.87;101492.84;5079322;28;45412;-81
2022/06/02 09:42:36;;;;;;;;;4.75;4.00;;;;;21.77;42.53;101485.94;5084603;28;45654;-82
2022/06/02 09:45:19;;;;;;;;;4.75;4.75;;;;;21.91;42.35;101488.72;5082313;28;45264;-78
2022/06/02 09:47:51;;;;;;;;;4.75;4.00;;;;;22.02;40.50;101494.06;5080256;28;45754;-83
2022/06/02 09:50:45;;;;;;;;;4.00;4.00;;;;;22.06;41.01;101496.72;5078414;28;45340;-84
2022/06/02 09:53:29;;;;;;;;;3.25;2.25;;;;;22.07;40.77;101502.91;5060797;28;45288;-86
2022/06/02 09:56:17;;;;;;;;;6.00;5.00;;;;;22.01;40.72;101498.47;5059783;28;47310;-84
2022/06/02 09:59:08;;;;;;;;;6.00;4.50;;;;;21.94;41.15;101501.91;5078910;27;45308;-84
2022/06/02 10:01:57;;;;;;;;;8.00;6.00;;;;;21.88;41.18;101501.84;5078206;28;45319;-87
2022/06/02 10:04:52;;;;;;;;;6.25;4.00;;;;;21.87;40.59;101505.34;5080539;28;45301;-83
2022/06/02 10:07:26;;;;;;;;;5.75;5.75;;;;;21.86;40.31;101504.50;5066332;28;45718;-85
2022/06/02 10:10:24;;;;;;;;;4.50;3.75;;;;;21.84;40.58;101502.69;5083792;27;45335;-86
2022/06/02 10:12:55;;;;;;;;;3.50;3.50;;;;;21.91;40.15;101504.53;5048367;28;45402;-84
2022/06/02 10:15:42;;;;;;;;;3.00;3.00;;;;;22.06;40.00;101496.72;5077721;28;45433;-81
2022/06/02 10:18:10;;;;;;;;;6.50;5.00;;;;;22.22;39.73;101496.88;5078493;28;46794;-80
2022/06/02 10:20:56;;;;;;;;;6.50;6.00;;;;;22.36;39.22;101484.63;5077102;27;45342;-82
2022/06/02 10:23:34;;;;;;;;;5.25;5.00;;;;;22.50;38.57;101484.78;5078424;27;45419;-84
2022/06/02 10:26:31;;;;;;;;;5.00;5.00;;;;;22.57;38.66;101483.03;5078990;28;45407;-78
2022/06/02 10:28:59;;;;;;;;;4.25;4.25;;;;;22.55;38.26;101483.03;5077680;27;46113;-80
2022/06/02 10:31:56;;;;;;;;;8.00;5.50;;;;;22.48;38.09;101470.69;5077149;27;45335;-80
2022/06/02 10:34:45;;;;;;;;;4.75;4.00;;;;;22.32;38.23;101466.13;5058782;28;45354;-76
2022/06/02 10:37:13;;;;;;;;;3.25;3.25;;;;;22.27;38.12;101468.75;5077663;27;45472;-77
2022/06/02 10:40:00;;;;;;;;;3.00;3.00;;;;;22.17;37.53;101470.47;5077360;28;45435;-81
2022/06/02 10:42:35;;;;;;;;;3.00;3.00;;;;;22.03;37.90;101472.97;5077120;28;45754;-80
2022/06/02 10:45:13;;;;;;;;;5.00;4.25;;;;;21.98;38.27;101466.78;5079354;28;45345;-86
2022/06/02 10:48:04;;;;;;;;;4.00;4.00;;;;;21.92;38.68;101474.66;5080226;28;45265;-84
2022/06/02 10:50:39;;;;;;;;;5.00;5.00;;;;;21.88;38.96;101471.09;5084256;28;45381;-84
2022/06/02 10:53:26;;;;;;;;;4.00;4.00;;;;;21.84;38.12;101461.41;5081437;28;45336;-85
2022/06/02 10:56:14;;;;;;;;;5.25;4.00;;;;;21.86;38.02;101464.06;5085695;27;45334;-87
2022/06/02 10:59:01;;;;;;;;;3.25;3.25;;;;;21.87;38.07;101456.16;5068101;28;45154;-85
2022/06/02 11:02:00;;;;;;;;;4.50;4.00;;;;;21.94;38.21;101459.72;5067106;28;47357;-84
2022/06/02 11:04:50;;;;;;;;;4.00;4.00;;;;;22.04;38.24;101455.41;5077453;28;45445;-86
2022/06/02 11:07:48;;;;;;;;;4.00;4.00;;;;;22.17;38.56;101445.81;5060550;28;45264;-85
2022/06/02 11:10:35;;;;;;;;;5.50;4.25;;;;;22.31;37.68;101448.53;5078820;27;45533;-80
2022/06/02 11:13:03;;;;;;;;;3.50;3.50;;;;;22.41;37.44;101439.84;5076860;28;45310;-86
2022/06/02 11:15:59;;;;;;;;;7.00;4.75;;;;;22.56;37.49;101452.28;5077065;27;45778;-87
2022/06/02 11:18:41;;;;;;;;;5.00;5.00;;;;;22.72;37.42;101442.66;5077976;28;45200;-87
2022/06/02 11:21:07;;;;;;;;;5.50;4.75;;;;;22.93;37.32;101433.94;5079447;28;45402;-85
2022/06/02 11:23:57;;;;;;;;;7.00;3.75;;;;;23.17;36.66;101440.16;5057890;28;47118;-86
2022/06/02 11:27:01;;;;;;;;;5.00;5.00;;;;;23.40;37.14;101428.81;5058452;28;45941;-77
2022/06/02 11:29:51;;;;;;;;;6.00;6.00;;;;;23.50;36.94;101428.78;5014308;28;45397;-79
2022/06/02 11:32:44;;;;;;;;;12.25;10.25;;;;;23.61;36.50;101427.91;5016881;28;45279;-87
2022/06/02 11:35:40;;;;;;;;;3.50;3.25;;;;;23.59;36.91;101419.13;5028861;28;46720;-79
2022/06/02 11:38:36;;;;;;;;;5.75;5.50;;;;;23.65;37.08;101419.13;5080809;28;45263;-84
2022/06/02 11:41:07;;;;;;;;;9.50;8.00;;;;;23.68;37.36;101408.56;5080074;27;45327;-78
2022/06/02 11:43:53;;;;;;;;;8.00;7.00;;;;;23.65;37.38;101401.47;5077444;27;45442;-81
2022/06/02 11:46:21;;;;;;;;;5.50;5.00;;;;;23.69;37.21;101412.06;5044939;28;46045;-79
2022/06/02 11:49:22;;;;;;;;;7.25;5.50;;;;;23.55;37.93;101397.09;5076413;27;45714;-86
2022/06/02 11:52:15;;;;;;;;;10.00;7.25;;;;;23.55;37.99;101405.00;5076493;27;45264;-82
2022/06/02 11:55:12;;;;;;;;;5.00;5.00;;;;;23.45;38.00;101387.38;5077300;28;45276;-82
2022/06/02 11:58:14;;;;;;;;;5.25;5.25;;;;;23.53;38.43;101404.16;5075957;28;45433;-82
2022/06/02 12:00:52;;;;;;;;;5.00;5.00;;;;;23.60;38.48;101402.38;5077460;28;45244;-79
2022/06/02 12:03:39;;;;;;;;;7.00;5.00;;;;;23.64;37.87;101396.22;5077061;28;45372;-81
2022/06/02 12:06:32;;;;;;;;;4.00;4.00;;;;;23.55;37.78;101401.50;5076169;28;45413;-82
2022/06/02 12:09:33;;;;;;;;;8.00;5.75;;;;;23.64;38.27;101397.09;5058740;27;47952;-82
2022/06/02 12:12:29;;;;;;;;;5.00;5.00;;;;;23.74;38.14;101383.88;5076698;28;45670;-85
2022/06/02 12:15:16;;;;;;;;;4.25;4.25;;;;;23.77;38.00;101384.75;5076241;28;45280;-81
2022/06/02 12:17:50;;;;;;;;;7.50;6.25;;;;;23.77;37.96;101382.13;5077287;28;45504;-78
2022/06/02 12:20:37;;;;;;;;;6.00;6.00;;;;;23.86;37.91;101378.59;5081672;27;45337;-78
2022/06/02 12:23:36;;;;;;;;;5.50;5.50;;;;;24.08;37.10;101375.94;5064048;28;45435;-80
2022/06/02 12:26:40;;;;;;;;;5.50;5.50;;;;;24.43;36.37;101372.28;5082204;28;45427;-78
2022/06/02 12:29:11;;;;;;;;;4.00;4.00;;;;;24.73;34.82;101373.03;5045326;28;45413;-83
2022/06/02 12:32:00;;;;;;;;;5.75;4.50;;;;;24.79;34.66;101353.59;5075494;28;46298;-81
2022/06/02 12:34:48;;;;;;;;;2.25;2.25;;;;;24.84;33.23;101354.47;5077400;28;45853;-79
2022/06/02 12:37:46;;;;;;;;;4.25;4.00;;;;;24.69;33.24;101356.31;5060811;28;45729;-76
2022/06/02 12:40:23;;;;;;;;;3.00;3.00;;;;;24.73;33.68;101357.16;5046216;27;45433;-80
2022/06/02 12:42:55;;;;;;;;;3.50;3.00;;;;;24.64;33.05;101352.78;5060793;28;46602;-83
2022/06/02 12:45:26;;;;;;;;;3.75;3.75;;;;;24.52;33.78;101352.84;5089446;28;45393;-84
2022/06/02 12:48:04;;;;;;;;;4.00;4.00;;;;;24.51;32.61;101359.00;5093001;27;45166;-79
2022/06/02 12:50:54;;;;;;;;;4.00;4.00;;;;;24.60;32.52;101343.06;5090299;28;45193;-79